createdAt,value
2023-04-15T00:00:53.782Z,13.70
2023-04-15T00:03:39.573Z,13.80
2023-04-15T00:06:26.553Z,13.70
2023-04-15T00:09:12.925Z,13.90
2023-04-15T00:11:58.806Z,14.00
2023-04-15T00:14:45.068Z,13.90
2023-04-15T00:17:31.260Z,13.70
2023-04-15T00:20:17.665Z,14.00
2023-04-15T00:23:04.319Z,14.20
2023-04-15T00:25:51.199Z,14.20
2023-04-15T00:28:37.364Z,14.10
2023-04-15T00:31:23.757Z,13.80
2023-04-15T00:34:10.114Z,13.60
2023-04-15T00:36:56.365Z,13.90
2023-04-15T00:39:42.064Z,14.10
2023-04-15T00:42:28.390Z,14.20
2023-04-15T00:45:14.577Z,14.10
2023-04-15T00:48:00.499Z,13.90
2023-04-15T00:50:46.529Z,13.30
2023-04-15T00:53:32.405Z,12.60
2023-04-15T00:56:18.715Z,12.30
2023-04-15T00:59:06.573Z,12.30
2023-04-15T01:01:53.286Z,12.60
2023-04-15T01:04:39.395Z,12.60
2023-04-15T01:07:25.110Z,12.60
2023-04-15T01:10:11.232Z,12.60
2023-04-15T01:12:57.060Z,12.30
2023-04-15T01:15:45.075Z,12.40
2023-04-15T01:18:31.663Z,11.90
2023-04-15T01:21:19.852Z,11.90
2023-04-15T01:24:10.264Z,12.10
2023-04-15T01:26:56.068Z,12.50
2023-04-15T01:29:43.187Z,12.30
2023-04-15T01:32:29.387Z,12.60
2023-04-15T01:35:15.233Z,12.40
2023-04-15T01:38:07.538Z,12.30
2023-04-15T01:40:53.488Z,12.50
2023-04-15T01:43:38.951Z,12.30
2023-04-15T01:46:24.679Z,12.00
2023-04-15T01:49:10.003Z,12.20
2023-04-15T01:51:55.897Z,12.60
2023-04-15T01:54:41.778Z,12.70
2023-04-15T01:57:27.371Z,12.60
2023-04-15T02:00:13.507Z,11.70
2023-04-15T02:02:59.464Z,11.10
2023-04-15T02:05:45.404Z,11.20
2023-04-15T02:08:31.273Z,11.10
2023-04-15T02:11:16.665Z,11.30
2023-04-15T02:14:02.058Z,11.40
2023-04-15T02:16:47.522Z,11.60
2023-04-15T02:19:35.677Z,11.50
2023-04-15T02:22:22.731Z,10.70
2023-04-15T02:25:09.152Z,10.40
2023-04-15T02:27:58.201Z,10.30
2023-04-15T02:30:43.789Z,10.80
2023-04-15T02:33:29.643Z,11.00
2023-04-15T02:36:15.797Z,11.30
2023-04-15T02:39:04.422Z,11.20
2023-04-15T02:41:53.889Z,11.00
2023-04-15T02:44:40.858Z,10.70
2023-04-15T02:47:26.754Z,10.80
2023-04-15T02:50:14.139Z,10.70
2023-04-15T02:53:02.787Z,10.60
2023-04-15T02:55:48.759Z,10.70
2023-04-15T02:58:36.730Z,10.50
2023-04-15T03:01:24.998Z,10.60
2023-04-15T03:04:11.278Z,10.70
2023-04-15T03:06:56.989Z,10.90
2023-04-15T03:09:43.472Z,11.10
2023-04-15T03:12:30.449Z,11.10
2023-04-15T03:15:17.207Z,11.00
2023-04-15T03:18:06.277Z,10.80
2023-04-15T03:20:52.896Z,10.70
2023-04-15T03:23:38.790Z,10.80
2023-04-15T03:26:29.332Z,10.80
2023-04-15T03:29:18.964Z,10.90
2023-04-15T03:32:05.215Z,11.00
2023-04-15T03:34:53.374Z,11.00
2023-04-15T03:37:39.531Z,11.00
2023-04-15T03:40:25.454Z,12.30
2023-04-15T03:43:11.316Z,11.00
2023-04-15T03:45:57.376Z,11.00
2023-04-15T03:48:42.998Z,11.00
2023-04-15T03:51:28.513Z,11.10
2023-04-15T03:54:15.234Z,11.10
2023-04-15T03:57:01.357Z,11.10
2023-04-15T03:59:46.912Z,11.00
2023-04-15T04:02:32.645Z,10.30
2023-04-15T04:05:18.388Z,10.30
2023-04-15T04:08:04.073Z,10.30
2023-04-15T04:10:49.568Z,10.30
2023-04-15T04:13:35.437Z,10.10
2023-04-15T04:16:21.216Z,10.20
2023-04-15T04:19:06.918Z,9.60
2023-04-15T04:21:53.469Z,9.00
2023-04-15T04:24:39.103Z,9.20
2023-04-15T04:27:25.595Z,9.40
2023-04-15T04:30:12.008Z,9.80
2023-04-15T04:32:58.364Z,9.80
2023-04-15T04:35:44.137Z,9.80
2023-04-15T04:38:29.919Z,10.10
2023-04-15T04:41:15.843Z,10.00
2023-04-15T04:44:02.038Z,9.70
2023-04-15T04:46:47.602Z,10.20
2023-04-15T04:49:33.433Z,10.50
2023-04-15T04:52:19.488Z,10.30
2023-04-15T04:55:06.517Z,10.30
2023-04-15T04:57:52.343Z,10.30
2023-04-15T05:00:38.483Z,9.80
2023-04-15T05:03:24.350Z,9.40
2023-04-15T05:06:10.772Z,9.80
2023-04-15T05:08:56.645Z,9.10
2023-04-15T05:11:42.556Z,9.40
2023-04-15T05:14:28.466Z,9.70
2023-04-15T05:17:14.357Z,9.20
2023-04-15T05:20:00.030Z,9.40
2023-04-15T05:22:45.759Z,9.60
2023-04-15T05:25:31.747Z,9.70
2023-04-15T05:28:17.743Z,9.90
2023-04-15T05:31:03.825Z,10.20
2023-04-15T05:33:49.362Z,10.20
2023-04-15T05:36:35.664Z,10.50
2023-04-15T05:39:21.530Z,10.40
2023-04-15T05:42:07.680Z,10.60
2023-04-15T05:44:53.237Z,10.80
2023-04-15T05:47:38.801Z,11.00
2023-04-15T05:50:24.420Z,11.10
2023-04-15T05:53:10.563Z,11.20
2023-04-15T05:55:56.135Z,11.00
2023-04-15T05:58:41.732Z,11.10
2023-04-15T06:01:27.940Z,11.30
2023-04-15T06:04:13.791Z,11.50
2023-04-15T06:06:59.193Z,11.70
2023-04-15T06:09:45.003Z,11.80
2023-04-15T06:12:30.928Z,12.00
2023-04-15T06:15:17.202Z,11.90
2023-04-15T06:18:03.287Z,12.00
2023-04-15T06:20:49.243Z,12.30
2023-04-15T06:23:36.468Z,12.60
2023-04-15T06:26:22.123Z,12.60
2023-04-15T06:29:07.653Z,12.50
2023-04-15T06:31:53.529Z,12.60
2023-04-15T06:34:39.428Z,12.70
2023-04-15T06:37:24.906Z,12.90
2023-04-15T06:40:11.178Z,13.20
2023-04-15T06:42:57.207Z,13.50
2023-04-15T06:45:43.325Z,13.60
2023-04-15T06:48:28.792Z,13.70
2023-04-15T06:51:14.638Z,13.60
2023-04-15T06:54:00.611Z,13.20
2023-04-15T06:56:47.430Z,13.10
2023-04-15T06:59:33.419Z,13.30
2023-04-15T07:02:19.338Z,13.30
2023-04-15T07:05:07.067Z,13.40
2023-04-15T07:07:53.140Z,13.60
2023-04-15T07:10:39.021Z,13.70
2023-04-15T07:13:24.972Z,13.90
2023-04-15T07:16:11.054Z,14.30
2023-04-15T07:18:57.214Z,13.70
2023-04-15T07:21:42.758Z,13.10
2023-04-15T07:24:29.180Z,14.00
2023-04-15T07:27:15.524Z,14.30
2023-04-15T07:30:02.795Z,14.20
2023-04-15T07:32:48.891Z,14.20
2023-04-15T07:35:38.627Z,14.40
2023-04-15T07:38:24.787Z,14.50
2023-04-15T07:41:10.916Z,14.50
2023-04-15T07:43:56.670Z,14.50
2023-04-15T07:46:47.205Z,14.90
2023-04-15T07:49:32.957Z,15.20
2023-04-15T07:52:19.129Z,13.80
2023-04-15T07:55:10.106Z,14.70
2023-04-15T07:57:57.438Z,14.70
2023-04-15T08:00:43.645Z,15.10
2023-04-15T08:03:29.714Z,15.00
2023-04-15T08:06:15.441Z,15.40
2023-04-15T08:09:01.990Z,15.20
2023-04-15T08:11:51.793Z,15.50
2023-04-15T08:14:37.403Z,15.60
2023-04-15T08:17:25.127Z,16.20
2023-04-15T08:20:11.803Z,16.10
2023-04-15T08:22:57.608Z,16.60
2023-04-15T08:25:43.571Z,16.80
2023-04-15T08:28:29.974Z,17.40
2023-04-15T08:31:17.619Z,17.50
2023-04-15T08:34:03.944Z,17.30
2023-04-15T08:36:50.379Z,17.20
2023-04-15T08:39:36.537Z,17.60
2023-04-15T08:42:31.900Z,18.80
2023-04-15T08:45:19.301Z,20.20
2023-04-15T08:48:06.800Z,20.50
2023-04-15T08:50:53.806Z,21.30
2023-04-15T08:53:39.900Z,20.90
2023-04-15T08:56:27.112Z,21.20
2023-04-15T08:59:13.902Z,20.80
2023-04-15T09:02:00.014Z,20.60
2023-04-15T09:04:45.784Z,22.00
2023-04-15T09:07:36.111Z,22.90
2023-04-15T09:10:22.584Z,22.70
2023-04-15T09:13:08.698Z,22.60
2023-04-15T09:15:55.469Z,23.50
2023-04-15T09:18:41.793Z,22.30
2023-04-15T09:21:27.726Z,22.50
2023-04-15T09:24:13.443Z,21.10
2023-04-15T09:26:58.937Z,22.60
2023-04-15T09:29:44.834Z,22.40
2023-04-15T09:32:31.607Z,23.60
2023-04-15T09:35:17.541Z,21.90
2023-04-15T09:38:08.264Z,22.60
2023-04-15T09:40:54.503Z,24.40
2023-04-15T09:43:40.925Z,23.60
2023-04-15T09:46:43.529Z,24.90
2023-04-15T09:49:29.939Z,23.70
2023-04-15T09:52:17.149Z,21.70
2023-04-15T09:55:03.422Z,22.50
2023-04-15T09:57:50.209Z,20.30
2023-04-15T10:00:37.873Z,22.40
2023-04-15T10:03:34.461Z,25.00
2023-04-15T10:06:21.853Z,26.30
2023-04-15T10:09:08.773Z,22.60
2023-04-15T10:11:54.834Z,22.70
2023-04-15T10:14:43.268Z,23.10
2023-04-15T10:17:33.894Z,23.40
2023-04-15T10:20:21.371Z,21.60
2023-04-15T10:23:10.408Z,21.30
2023-04-15T10:25:59.086Z,21.10
2023-04-15T10:28:47.406Z,23.80
2023-04-15T10:31:33.521Z,24.50
2023-04-15T10:34:19.789Z,24.40
2023-04-15T10:37:09.900Z,24.20
2023-04-15T10:39:56.027Z,23.60
2023-04-15T10:42:41.938Z,23.50
2023-04-15T10:45:37.804Z,24.40
2023-04-15T10:48:24.777Z,24.50
2023-04-15T10:51:13.923Z,23.30
2023-04-15T10:54:01.077Z,23.10
2023-04-15T10:56:52.180Z,24.30
2023-04-15T10:59:52.516Z,23.70
2023-04-15T11:03:00.461Z,24.70
2023-04-15T11:05:53.803Z,24.10
2023-04-15T11:09:29.249Z,23.30
2023-04-15T11:12:16.239Z,22.10
2023-04-15T11:15:29.809Z,21.50
2023-04-15T11:18:23.096Z,21.90
2023-04-15T11:21:09.829Z,23.70
2023-04-15T11:23:56.419Z,24.10
2023-04-15T11:26:42.522Z,23.90
2023-04-15T11:29:35.059Z,24.00
2023-04-15T11:32:22.594Z,23.40
2023-04-15T11:35:08.893Z,23.20
2023-04-15T11:37:56.500Z,22.40
2023-04-15T11:40:46.758Z,21.30
2023-04-15T11:43:35.632Z,20.20
2023-04-15T11:46:29.329Z,20.80
2023-04-15T11:49:30.638Z,19.90
2023-04-15T11:52:16.612Z,19.90
2023-04-15T11:55:07.586Z,20.20
2023-04-15T11:58:17.065Z,20.70
2023-04-15T12:01:03.363Z,21.00
2023-04-15T12:03:50.558Z,20.60
2023-04-15T12:06:37.528Z,20.40
2023-04-15T12:09:23.899Z,19.80
2023-04-15T12:12:12.248Z,20.00
2023-04-15T12:14:59.642Z,20.90
2023-04-15T12:17:50.981Z,19.90
2023-04-15T12:20:45.453Z,20.40
2023-04-15T12:23:31.693Z,20.50
2023-04-15T12:26:19.161Z,20.40
2023-04-15T12:29:10.452Z,21.40
2023-04-15T12:32:14.700Z,20.90
2023-04-15T12:35:00.576Z,20.90
2023-04-15T12:37:46.469Z,21.60
2023-04-15T12:40:32.747Z,20.60
2023-04-15T12:43:19.138Z,21.00
2023-04-15T12:46:05.722Z,21.00
2023-04-15T12:48:53.518Z,21.50
2023-04-15T12:51:39.797Z,20.60
2023-04-15T12:54:26.988Z,20.60
2023-04-15T12:57:13.065Z,20.00
2023-04-15T12:59:58.797Z,19.50
2023-04-15T13:02:45.400Z,19.60
2023-04-15T13:05:32.069Z,19.50
2023-04-15T13:08:19.038Z,20.10
2023-04-15T13:11:04.814Z,20.30
2023-04-15T13:13:52.878Z,19.80
2023-04-15T13:16:41.817Z,19.70
2023-04-15T13:19:29.055Z,20.10
2023-04-15T13:22:15.510Z,19.90
2023-04-15T13:25:01.850Z,19.70
2023-04-15T13:27:47.562Z,19.80
2023-04-15T13:30:33.961Z,20.00
2023-04-15T13:33:19.614Z,19.50
2023-04-15T13:36:06.209Z,19.70
2023-04-15T13:38:52.274Z,19.70
2023-04-15T13:41:38.757Z,19.20
2023-04-15T13:44:24.780Z,19.50
2023-04-15T13:47:11.618Z,20.40
2023-04-15T13:49:58.085Z,19.80
2023-04-15T13:52:44.236Z,19.60
2023-04-15T13:55:29.907Z,19.50
2023-04-15T13:58:16.997Z,19.30
2023-04-15T14:01:05.739Z,19.40
2023-04-15T14:03:52.812Z,19.90
2023-04-15T14:06:39.120Z,20.70
2023-04-15T14:09:26.533Z,20.10
2023-04-15T14:12:15.043Z,19.70
2023-04-15T14:15:01.337Z,20.30
2023-04-15T14:17:47.492Z,20.30
2023-04-15T14:20:33.939Z,20.10
2023-04-15T14:23:21.247Z,19.20
2023-04-15T14:26:07.415Z,19.20
2023-04-15T14:28:53.030Z,19.40
2023-04-15T14:31:39.276Z,19.70
2023-04-15T14:34:27.481Z,19.80
2023-04-15T14:37:14.358Z,19.40
2023-04-15T14:40:00.358Z,19.50
2023-04-15T14:42:46.609Z,19.60
2023-04-15T14:45:36.035Z,19.30
2023-04-15T14:48:23.401Z,18.70
2023-04-15T14:51:09.295Z,18.80
2023-04-15T14:53:55.331Z,19.20
2023-04-15T14:56:41.543Z,19.30
2023-04-15T14:59:27.488Z,19.20
2023-04-15T15:02:17.356Z,19.30
2023-04-15T15:05:12.614Z,19.60
2023-04-15T15:07:58.501Z,19.30
2023-04-15T15:10:48.275Z,19.30
2023-04-15T15:13:38.211Z,19.20
2023-04-15T15:16:24.965Z,18.10
2023-04-15T15:19:10.975Z,19.20
2023-04-15T15:21:56.827Z,19.60
2023-04-15T15:24:42.137Z,19.90
2023-04-15T15:27:28.170Z,19.70
2023-04-15T15:30:14.553Z,19.60
2023-04-15T15:33:00.937Z,19.20
2023-04-15T15:35:47.476Z,19.00
2023-04-15T15:38:33.942Z,19.20
2023-04-15T15:41:19.568Z,19.00
2023-04-15T15:44:05.370Z,18.80
2023-04-15T15:46:51.596Z,19.10
2023-04-15T15:49:38.232Z,19.50
2023-04-15T15:52:24.256Z,19.30
2023-04-15T15:55:10.782Z,19.40
2023-04-15T15:57:57.042Z,18.80
2023-04-15T16:00:43.433Z,18.30
2023-04-15T16:03:29.788Z,18.20
2023-04-15T16:06:15.664Z,18.40
2023-04-15T16:09:01.535Z,18.60
2023-04-15T16:11:47.560Z,18.80
2023-04-15T16:14:33.915Z,18.70
2023-04-15T16:17:19.909Z,19.00
2023-04-15T16:20:07.069Z,19.30
2023-04-15T16:22:53.400Z,19.00
2023-04-15T16:25:38.989Z,19.10
2023-04-15T16:28:27.125Z,19.20
2023-04-15T16:31:13.290Z,18.80
2023-04-15T16:33:59.335Z,18.80
2023-04-15T16:36:45.808Z,18.80
2023-04-15T16:39:31.937Z,18.60
2023-04-15T16:42:38.985Z,18.40
2023-04-15T16:45:25.673Z,18.10
2023-04-15T16:48:11.647Z,18.00
2023-04-15T16:50:57.936Z,18.00
2023-04-15T16:53:43.820Z,18.10
2023-04-15T16:56:30.508Z,17.90
2023-04-15T16:59:17.069Z,18.00
2023-04-15T17:02:03.715Z,17.90
2023-04-15T17:04:50.214Z,18.00
2023-04-15T17:07:36.534Z,17.80
2023-04-15T17:10:22.864Z,17.80
2023-04-15T17:13:09.529Z,17.70
2023-04-15T17:15:55.946Z,17.50
2023-04-15T17:18:41.891Z,17.60
2023-04-15T17:21:27.991Z,17.50
2023-04-15T17:24:14.326Z,17.50
2023-04-15T17:27:01.507Z,17.30
2023-04-15T17:29:49.425Z,17.10
2023-04-15T17:32:36.114Z,17.00
2023-04-15T17:35:23.533Z,16.80
2023-04-15T17:38:09.494Z,16.50
2023-04-15T17:40:55.589Z,16.30
2023-04-15T17:43:43.812Z,16.20
2023-04-15T17:46:31.896Z,16.10
2023-04-15T17:49:17.881Z,16.10
2023-04-15T17:52:04.078Z,16.00
2023-04-15T17:54:50.465Z,15.90
2023-04-15T17:57:37.874Z,15.90
2023-04-15T18:00:24.214Z,15.70
2023-04-15T18:03:10.757Z,15.60
2023-04-15T18:05:57.092Z,15.50
2023-04-15T18:08:43.264Z,15.60
2023-04-15T18:11:29.343Z,15.60
2023-04-15T18:14:26.701Z,15.40
2023-04-15T18:17:20.631Z,15.30
2023-04-15T18:20:07.461Z,15.30
2023-04-15T18:22:53.255Z,15.30
2023-04-15T18:25:39.432Z,15.30
2023-04-15T18:28:25.864Z,15.30
2023-04-15T18:31:12.196Z,15.20
2023-04-15T18:33:58.132Z,15.20
2023-04-15T18:36:44.192Z,15.10
2023-04-15T18:39:30.251Z,15.20
2023-04-15T18:42:16.326Z,15.20
2023-04-15T18:45:02.515Z,15.00
2023-04-15T18:47:48.949Z,15.10
2023-04-15T18:50:35.056Z,15.20
2023-04-15T18:53:21.801Z,15.20
2023-04-15T18:56:08.035Z,15.00
2023-04-15T18:59:08.576Z,15.00
2023-04-15T19:02:02.096Z,15.00
2023-04-15T19:04:48.606Z,15.00
2023-04-15T19:07:35.397Z,15.00
2023-04-15T19:10:22.029Z,15.00
2023-04-15T19:13:07.815Z,14.90
2023-04-15T19:15:53.891Z,14.80
2023-04-15T19:18:40.181Z,14.80
2023-04-15T19:21:26.266Z,14.90
2023-04-15T19:24:12.377Z,14.80
2023-04-15T19:26:58.295Z,14.80
2023-04-15T19:29:44.272Z,14.80
2023-04-15T19:32:30.070Z,14.70
2023-04-15T19:35:16.062Z,14.60
2023-04-15T19:38:03.352Z,14.50
2023-04-15T19:40:49.703Z,14.50
2023-04-15T19:43:35.736Z,14.60
2023-04-15T19:46:21.413Z,14.60
2023-04-15T19:49:07.688Z,14.60
2023-04-15T19:51:53.514Z,14.60
2023-04-15T19:54:39.479Z,14.50
2023-04-15T19:57:25.737Z,14.50
2023-04-15T20:00:12.242Z,14.50
2023-04-15T20:02:58.558Z,14.50
2023-04-15T20:05:43.906Z,14.40
2023-04-15T20:08:29.908Z,14.30
2023-04-15T20:11:16.060Z,14.30
2023-04-15T20:14:02.404Z,14.30
2023-04-15T20:16:48.637Z,14.30
2023-04-15T20:19:34.473Z,14.40
2023-04-15T20:22:20.166Z,14.40
2023-04-15T20:25:06.820Z,14.60
2023-04-15T20:27:52.669Z,14.70
2023-04-15T20:30:39.752Z,14.50
2023-04-15T20:33:27.293Z,14.30
2023-04-15T20:36:12.756Z,14.50
2023-04-15T20:38:59.051Z,14.60
2023-04-15T20:41:45.408Z,14.90
2023-04-15T20:44:31.224Z,14.90
2023-04-15T20:47:17.185Z,15.20
2023-04-15T20:50:03.187Z,15.10
2023-04-15T20:52:49.526Z,15.20
2023-04-15T20:55:35.618Z,15.10
2023-04-15T20:58:21.665Z,15.20
2023-04-15T21:01:07.418Z,15.10
2023-04-15T21:03:53.717Z,15.40
2023-04-15T21:06:39.497Z,15.40
2023-04-15T21:09:25.725Z,15.30
2023-04-15T21:12:12.175Z,15.40
2023-04-15T21:14:58.416Z,15.00
2023-04-15T21:17:44.396Z,14.90
2023-04-15T21:20:30.431Z,14.70
2023-04-15T21:23:16.371Z,14.50
2023-04-15T21:26:02.509Z,14.40
2023-04-15T21:28:48.801Z,14.40
2023-04-15T21:31:34.757Z,14.20
2023-04-15T21:34:21.239Z,14.00
2023-04-15T21:37:07.981Z,13.90
2023-04-15T21:39:53.926Z,13.90
2023-04-15T21:42:40.226Z,13.90
2023-04-15T21:45:25.913Z,14.00
2023-04-15T21:48:13.262Z,14.00
2023-04-15T21:51:00.692Z,13.90
2023-04-15T21:53:47.064Z,14.10
2023-04-15T21:56:33.323Z,14.00
2023-04-15T21:59:19.432Z,14.10
2023-04-15T22:02:05.278Z,13.90
2023-04-15T22:04:51.354Z,14.10
2023-04-15T22:07:37.077Z,14.10
2023-04-15T22:10:22.866Z,14.30
2023-04-15T22:13:11.260Z,14.40
2023-04-15T22:15:57.351Z,14.50
2023-04-15T22:18:43.148Z,14.30
2023-04-15T22:21:28.710Z,13.70
2023-04-15T22:24:38.749Z,13.30
2023-04-15T22:27:20.868Z,13.20
2023-04-15T22:30:08.190Z,13.10
2023-04-15T22:32:54.415Z,13.00
2023-04-15T22:35:40.415Z,12.90
2023-04-15T22:38:26.039Z,12.90
2023-04-15T22:41:11.791Z,12.80
2023-04-15T22:43:57.574Z,13.00
2023-04-15T22:46:44.000Z,13.20
2023-04-15T22:49:30.138Z,13.30
2023-04-15T22:52:29.302Z,13.30
2023-04-15T22:55:17.275Z,13.40
2023-04-15T22:58:03.018Z,13.50
2023-04-15T23:00:49.844Z,13.60
2023-04-15T23:03:40.190Z,13.60
2023-04-15T23:06:41.384Z,13.50
2023-04-15T23:09:27.274Z,13.70
2023-04-15T23:12:14.074Z,13.80
2023-04-15T23:14:59.704Z,14.10
2023-04-15T23:17:45.637Z,14.20
2023-04-15T23:20:31.596Z,14.30
2023-04-15T23:23:17.473Z,14.40
2023-04-15T23:26:04.193Z,14.00
2023-04-15T23:28:50.470Z,13.90
2023-04-15T23:31:36.756Z,13.70
2023-04-15T23:34:22.945Z,14.00
2023-04-15T23:37:08.593Z,14.20
2023-04-15T23:39:55.818Z,14.10
2023-04-15T23:42:41.870Z,13.90
2023-04-15T23:45:27.860Z,13.80
2023-04-15T23:48:13.986Z,14.00
2023-04-15T23:51:00.540Z,14.00
2023-04-15T23:53:46.596Z,14.00
2023-04-15T23:56:32.634Z,14.00
2023-04-15T23:59:18.096Z,14.00
